logo
Search for airport 
image banner adimage banner adimage banner ad
image banner ad

SVEB - Ensco Iv

Located in Lago De Maracaibo, Venezuela

ICAO - SVEB, IATA -

Data provided by Airmate  

General information

Coordinates: N9°35'51" W71°28'6"
Elevation is 79 feet MSL.
 
View others Airports in Zulia

Operational data

Special qualification required
Current time UTC:
Current local time:
Weather at : - ( 0 km )
METAR: ZMUB 191500Z VRB01MPS 9999 FEW030CB SCT033 12/10 Q1002 NOSIG RMK QFE645.6 87 NT
View NOTAMs / SUP AIP / TFR affecting this airport [VIEW]
Communications frequencies: [VIEW]

Runways:

RWY identifierQFULength (ft)Width (ft)SurfaceLDA (ft)
0991°328142ASP
27271°328142ASP

Airport contact information

Address: Lago De Maracaibo Venezuela

Satellite view of SVEB